sensor_id;sensor_type;location;lat;lon;timestamp;pressure;altitude;pressure_sealevel;temperature;humidity
66398;BME280;54877;51.504;3.894;2023-04-05T00:00:42;102574.44;;;8.91;55.30
66398;BME280;54877;51.504;3.894;2023-04-05T00:03:08;102583.22;;;8.93;55.01
66398;BME280;54877;51.504;3.894;2023-04-05T00:05:34;102585.06;;;8.89;55.46
66398;BME280;54877;51.504;3.894;2023-04-05T00:08:02;102573.63;;;8.87;55.32
66398;BME280;54877;51.504;3.894;2023-04-05T00:10:28;102570.09;;;8.86;55.39
66398;BME280;54877;51.504;3.894;2023-04-05T00:12:54;102568.41;;;8.82;55.51
66398;BME280;54877;51.504;3.894;2023-04-05T00:15:20;102572.81;;;8.82;55.22
66398;BME280;54877;51.504;3.894;2023-04-05T00:17:46;102558.78;;;8.80;55.10
66398;BME280;54877;51.504;3.894;2023-04-05T00:20:11;102569.34;;;8.78;55.20
66398;BME280;54877;51.504;3.894;2023-04-05T00:22:37;102563.22;;;8.76;55.40
66398;BME280;54877;51.504;3.894;2023-04-05T00:25:05;102568.50;;;8.76;55.61
66398;BME280;54877;51.504;3.894;2023-04-05T00:27:31;102563.22;;;8.76;55.44
66398;BME280;54877;51.504;3.894;2023-04-05T00:29:56;102564.19;;;8.72;55.48
66398;BME280;54877;51.504;3.894;2023-04-05T00:32:22;102554.56;;;8.67;55.58
66398;BME280;54877;51.504;3.894;2023-04-05T00:34:48;102551.94;;;8.67;55.70
66398;BME280;54877;51.504;3.894;2023-04-05T00:37:13;102557.22;;;8.67;55.77
66398;BME280;54877;51.504;3.894;2023-04-05T00:39:39;102549.31;;;8.65;55.59
66398;BME280;54877;51.504;3.894;2023-04-05T00:42:04;102551.97;;;8.64;55.68
66398;BME280;54877;51.504;3.894;2023-04-05T00:44:30;102548.47;;;8.62;55.91
66398;BME280;54877;51.504;3.894;2023-04-05T00:47:07;102552.91;;;8.60;55.83
66398;BME280;54877;51.504;3.894;2023-04-05T00:49:33;102548.53;;;8.59;55.65
66398;BME280;54877;51.504;3.894;2023-04-05T00:52:00;102554.69;;;8.58;55.80
66398;BME280;54877;51.504;3.894;2023-04-05T00:54:26;102550.34;;;8.54;55.82
66398;BME280;54877;51.504;3.894;2023-04-05T00:56:56;102540.66;;;8.54;56.00
66398;BME280;54877;51.504;3.894;2023-04-05T00:59:24;102533.66;;;8.53;56.24
66398;BME280;54877;51.504;3.894;2023-04-05T01:01:53;102536.31;;;8.52;56.09
66398;BME280;54877;51.504;3.894;2023-04-05T01:04:24;102534.53;;;8.51;56.10
66398;BME280;54877;51.504;3.894;2023-04-05T01:09:54;102533.69;;;8.50;56.22
66398;BME280;54877;51.504;3.894;2023-04-05T01:12:21;102533.69;;;8.49;56.34
66398;BME280;54877;51.504;3.894;2023-04-05T01:14:50;102529.38;;;8.45;56.05
66398;BME280;54877;51.504;3.894;2023-04-05T01:17:20;102532.06;;;8.42;56.39
66398;BME280;54877;51.504;3.894;2023-04-05T01:19:50;102525.91;;;8.40;56.53
66398;BME280;54877;51.504;3.894;2023-04-05T01:22:39;102520.66;;;8.38;56.38
66398;BME280;54877;51.504;3.894;2023-04-05T01:30:35;102507.53;;;8.34;56.45
66398;BME280;54877;51.504;3.894;2023-04-05T01:35:50;102511.97;;;8.28;56.77
66398;BME280;54877;51.504;3.894;2023-04-05T01:38:20;102497.91;;;8.26;56.93
66398;BME280;54877;51.504;3.894;2023-04-05T01:40:49;102498.84;;;8.24;57.00
66398;BME280;54877;51.504;3.894;2023-04-05T01:43:15;102499.75;;;8.21;56.73
66398;BME280;54877;51.504;3.894;2023-04-05T01:45:42;102490.06;;;8.20;56.68
66398;BME280;54877;51.504;3.894;2023-04-05T01:48:08;102496.22;;;8.21;56.84
66398;BME280;54877;51.504;3.894;2023-04-05T01:50:34;102488.34;;;8.18;56.64
66398;BME280;54877;51.504;3.894;2023-04-05T01:52:59;102488.41;;;8.15;57.22
66398;BME280;54877;51.504;3.894;2023-04-05T01:55:25;102480.56;;;8.10;57.04
66398;BME280;54877;51.504;3.894;2023-04-05T01:57:50;102485.88;;;8.09;57.34
66398;BME280;54877;51.504;3.894;2023-04-05T02:00:16;102484.13;;;8.06;57.13
66398;BME280;54877;51.504;3.894;2023-04-05T02:02:42;102478.91;;;8.03;57.29
66398;BME280;54877;51.504;3.894;2023-04-05T02:05:07;102473.66;;;8.00;57.47
66398;BME280;54877;51.504;3.894;2023-04-05T02:07:32;102473.66;;;8.00;57.26
66398;BME280;54877;51.504;3.894;2023-04-05T02:09:58;102476.31;;;7.99;57.61
66398;BME280;54877;51.504;3.894;2023-04-05T02:12:23;102476.34;;;7.97;57.25
66398;BME280;54877;51.504;3.894;2023-04-05T02:14:48;102470.22;;;7.95;57.54
66398;BME280;54877;51.504;3.894;2023-04-05T02:17:15;102470.22;;;7.95;57.25
66398;BME280;54877;51.504;3.894;2023-04-05T02:19:41;102468.47;;;7.94;57.54
66398;BME280;54877;51.504;3.894;2023-04-05T02:22:10;102464.06;;;7.93;57.72
66398;BME280;54877;51.504;3.894;2023-04-05T02:24:36;102464.94;;;7.95;57.28
66398;BME280;54877;51.504;3.894;2023-04-05T02:27:01;102464.09;;;7.90;57.83
66398;BME280;54877;51.504;3.894;2023-04-05T02:29:27;102461.50;;;7.89;57.88
66398;BME280;54877;51.504;3.894;2023-04-05T02:31:53;102458.00;;;7.88;57.55
66398;BME280;54877;51.504;3.894;2023-04-05T02:34:18;102462.47;;;7.83;57.72
66398;BME280;54877;51.504;3.894;2023-04-05T02:36:44;102458.09;;;7.79;57.84
66398;BME280;54877;51.504;3.894;2023-04-05T02:39:09;102459.88;;;7.79;58.02
66398;BME280;54877;51.504;3.894;2023-04-05T02:41:35;102466.00;;;7.79;58.09
66398;BME280;54877;51.504;3.894;2023-04-05T02:44:01;102462.47;;;7.82;57.91
66398;BME280;54877;51.504;3.894;2023-04-05T02:46:26;102459.84;;;7.80;57.89
66398;BME280;54877;51.504;3.894;2023-04-05T02:48:52;102457.19;;;7.82;58.16
66398;BME280;54877;51.504;3.894;2023-04-05T02:51:17;102454.56;;;7.82;57.85
66398;BME280;54877;51.504;3.894;2023-04-05T02:53:42;102452.81;;;7.79;57.96
66398;BME280;54877;51.504;3.894;2023-04-05T02:56:09;102458.97;;;7.80;57.75
66398;BME280;54877;51.504;3.894;2023-04-05T02:58:37;102448.44;;;7.80;57.75
66398;BME280;54877;51.504;3.894;2023-04-05T03:01:03;102449.34;;;7.77;57.94
66398;BME280;54877;51.504;3.894;2023-04-05T03:03:31;102455.53;;;7.75;57.75
66398;BME280;54877;51.504;3.894;2023-04-05T03:06:02;102444.09;;;7.74;58.04
66398;BME280;54877;51.504;3.894;2023-04-05T03:08:39;102447.66;;;7.73;57.70
66398;BME280;54877;51.504;3.894;2023-04-05T03:11:10;102445.94;;;7.69;57.69
66398;BME280;54877;51.504;3.894;2023-04-05T03:13:35;102440.66;;;7.69;57.71
66398;BME280;54877;51.504;3.894;2023-04-05T03:16:01;102440.69;;;7.66;58.34
66398;BME280;54877;51.504;3.894;2023-04-05T03:18:27;102442.47;;;7.65;58.58
66398;BME280;54877;51.504;3.894;2023-04-05T03:20:56;102437.22;;;7.64;58.04
66398;BME280;54877;51.504;3.894;2023-04-05T03:23:23;102440.72;;;7.63;58.05
66398;BME280;54877;51.504;3.894;2023-04-05T03:25:57;102440.72;;;7.63;58.11
66398;BME280;54877;51.504;3.894;2023-04-05T03:28:23;102442.53;;;7.61;57.95
66398;BME280;54877;51.504;3.894;2023-04-05T03:30:49;102444.28;;;7.62;58.19
66398;BME280;54877;51.504;3.894;2023-04-05T03:33:15;102433.72;;;7.62;58.26
66398;BME280;54877;51.504;3.894;2023-04-05T03:35:41;102440.75;;;7.60;58.43
66398;BME280;54877;51.504;3.894;2023-04-05T03:38:06;102439.03;;;7.59;58.24
66398;BME280;54877;51.504;3.894;2023-04-05T03:40:32;102431.13;;;7.59;57.76
66398;BME280;54877;51.504;3.894;2023-04-05T03:42:57;102429.41;;;7.56;57.80
66398;BME280;54877;51.504;3.894;2023-04-05T03:45:22;102423.25;;;7.56;58.24
66398;BME280;54877;51.504;3.894;2023-04-05T03:47:48;102422.38;;;7.55;57.87
66398;BME280;54877;51.504;3.894;2023-04-05T03:50:14;102420.63;;;7.56;57.85
66398;BME280;54877;51.504;3.894;2023-04-05T03:52:39;102419.72;;;7.57;57.85
66398;BME280;54877;51.504;3.894;2023-04-05T03:55:05;102417.13;;;7.55;57.86
66398;BME280;54877;51.504;3.894;2023-04-05T03:57:32;102419.75;;;7.54;58.08
66398;BME280;54877;51.504;3.894;2023-04-05T03:59:57;102410.16;;;7.50;58.22
66398;BME280;54877;51.504;3.894;2023-04-05T04:02:23;102413.66;;;7.49;58.15
66398;BME280;54877;51.504;3.894;2023-04-05T04:04:48;102411.06;;;7.46;58.11
66398;BME280;54877;51.504;3.894;2023-04-05T04:07:13;102418.13;;;7.44;57.83
66398;BME280;54877;51.504;3.894;2023-04-05T04:09:39;102416.44;;;7.40;58.34
66398;BME280;54877;51.504;3.894;2023-04-05T04:12:04;102416.47;;;7.37;58.53
66398;BME280;54877;51.504;3.894;2023-04-05T04:14:30;102413.84;;;7.34;58.67
66398;BME280;54877;51.504;3.894;2023-04-05T04:16:56;102413.00;;;7.32;58.96
66398;BME280;54877;51.504;3.894;2023-04-05T04:19:22;102423.56;;;7.32;58.76
66398;BME280;54877;51.504;3.894;2023-04-05T04:21:47;102417.44;;;7.27;58.93
66398;BME280;54877;51.504;3.894;2023-04-05T04:24:16;102417.47;;;7.24;59.07
66398;BME280;54877;51.504;3.894;2023-04-05T04:26:44;102411.38;;;7.19;58.66
66398;BME280;54877;51.504;3.894;2023-04-05T04:29:10;102406.13;;;7.19;58.64
66398;BME280;54877;51.504;3.894;2023-04-05T04:31:37;102398.22;;;7.19;58.57
66398;BME280;54877;51.504;3.894;2023-04-05T04:34:03;102398.25;;;7.16;58.80
66398;BME280;54877;51.504;3.894;2023-04-05T04:36:29;102392.09;;;7.17;59.09
66398;BME280;54877;51.504;3.894;2023-04-05T04:39:01;102392.09;;;7.17;59.17
66398;BME280;54877;51.504;3.894;2023-04-05T04:41:29;102387.72;;;7.17;58.78
66398;BME280;54877;51.504;3.894;2023-04-05T04:43:57;102398.25;;;7.16;58.69
66398;BME280;54877;51.504;3.894;2023-04-05T04:46:27;102393.84;;;7.18;58.50
66398;BME280;54877;51.504;3.894;2023-04-05T04:48:58;102401.72;;;7.19;58.88
66398;BME280;54877;51.504;3.894;2023-04-05T04:51:30;102402.63;;;7.17;59.12
66398;BME280;54877;51.504;3.894;2023-04-05T04:53:57;102403.50;;;7.16;58.81
66398;BME280;54877;51.504;3.894;2023-04-05T04:56:23;102408.84;;;7.11;59.15
66398;BME280;54877;51.504;3.894;2023-04-05T04:58:48;102408.81;;;7.13;59.11
66398;BME280;54877;51.504;3.894;2023-04-05T05:01:14;102417.63;;;7.10;59.19
66398;BME280;54877;51.504;3.894;2023-04-05T05:03:41;102415.03;;;7.05;59.25
66398;BME280;54877;51.504;3.894;2023-04-05T05:06:06;102416.81;;;7.03;59.44
66398;BME280;54877;51.504;3.894;2023-04-05T05:08:32;102415.06;;;7.02;59.41
66398;BME280;54877;51.504;3.894;2023-04-05T05:10:57;102423.00;;;6.99;59.39
66398;BME280;54877;51.504;3.894;2023-04-05T05:13:23;102427.41;;;6.97;59.57
66398;BME280;54877;51.504;3.894;2023-04-05T05:15:48;102416.88;;;6.97;59.98
66398;BME280;54877;51.504;3.894;2023-04-05T05:18:14;102420.38;;;6.96;59.65
66398;BME280;54877;51.504;3.894;2023-04-05T05:20:40;102433.56;;;6.96;60.08
66398;BME280;54877;51.504;3.894;2023-04-05T05:23:06;102433.56;;;6.98;59.78
66398;BME280;54877;51.504;3.894;2023-04-05T05:25:31;102424.75;;;6.99;59.95
66398;BME280;54877;51.504;3.894;2023-04-05T05:27:57;102425.63;;;6.99;59.79
66398;BME280;54877;51.504;3.894;2023-04-05T05:30:22;102429.09;;;7.01;59.55
66398;BME280;54877;51.504;3.894;2023-04-05T05:32:48;102420.31;;;7.05;59.71
66398;BME280;54877;51.504;3.894;2023-04-05T05:35:13;102427.31;;;7.09;60.09
66398;BME280;54877;51.504;3.894;2023-04-05T05:37:38;102422.84;;;7.13;59.90
66398;BME280;54877;51.504;3.894;2023-04-05T05:40:04;102428.88;;;7.26;59.49
66398;BME280;54877;51.504;3.894;2023-04-05T05:42:30;102421.66;;;7.43;59.41
66398;BME280;54877;51.504;3.894;2023-04-05T05:44:56;102421.44;;;7.61;58.67
66398;BME280;54877;51.504;3.894;2023-04-05T05:47:24;102421.16;;;7.84;58.42
66398;BME280;54877;51.504;3.894;2023-04-05T05:49:49;102427.00;;;8.04;57.70
66398;BME280;54877;51.504;3.894;2023-04-05T05:52:15;102418.75;;;8.26;57.55
66398;BME280;54877;51.504;3.894;2023-04-05T05:54:41;102423.81;;;8.45;57.35
66398;BME280;54877;51.504;3.894;2023-04-05T05:57:06;102427.03;;;8.62;57.13
66398;BME280;54877;51.504;3.894;2023-04-05T05:59:31;102424.97;;;8.79;57.00
66398;BME280;54877;51.504;3.894;2023-04-05T06:01:57;102423.75;;;9.00;56.53
66398;BME280;54877;51.504;3.894;2023-04-05T06:04:22;102415.47;;;9.19;55.45
66398;BME280;54877;51.504;3.894;2023-04-05T06:06:48;102417.78;;;9.36;55.31
66398;BME280;54877;51.504;3.894;2023-04-05T06:09:13;102414.91;;;9.47;55.18
66398;BME280;54877;51.504;3.894;2023-04-05T06:11:40;102419.09;;;9.58;55.24
66398;BME280;54877;51.504;3.894;2023-04-05T06:14:05;102423.28;;;9.68;55.18
66398;BME280;54877;51.504;3.894;2023-04-05T06:16:31;102422.22;;;9.77;55.52
66398;BME280;54877;51.504;3.894;2023-04-05T06:18:56;102420.22;;;9.88;55.56
66398;BME280;54877;51.504;3.894;2023-04-05T06:21:22;102427.84;;;10.00;55.51
66398;BME280;54877;51.504;3.894;2023-04-05T06:23:48;102422.44;;;10.06;55.71
66398;BME280;54877;51.504;3.894;2023-04-05T06:26:17;102424.03;;;10.15;55.92
66398;BME280;54877;51.504;3.894;2023-04-05T06:28:44;102420.31;;;10.23;55.65
66398;BME280;54877;51.504;3.894;2023-04-05T06:31:12;102421.91;;;10.30;55.43
66398;BME280;54877;51.504;3.894;2023-04-05T06:33:38;102425.28;;;10.37;55.60
66398;BME280;54877;51.504;3.894;2023-04-05T06:36:03;102416.31;;;10.42;55.11
66398;BME280;54877;51.504;3.894;2023-04-05T06:38:28;102419.72;;;10.49;55.03
66398;BME280;54877;51.504;3.894;2023-04-05T06:40:54;102421.28;;;10.56;54.91
66398;BME280;54877;51.504;3.894;2023-04-05T06:43:19;102410.69;;;10.57;55.23
66398;BME280;54877;51.504;3.894;2023-04-05T06:45:45;102411.28;;;10.67;55.35
66398;BME280;54877;51.504;3.894;2023-04-05T06:48:10;102413.78;;;10.73;54.69
66398;BME280;54877;51.504;3.894;2023-04-05T06:50:35;102413.59;;;10.81;54.21
66398;BME280;54877;51.504;3.894;2023-04-05T06:53:01;102405.50;;;10.87;53.64
66398;BME280;54877;51.504;3.894;2023-04-05T06:55:28;102410.63;;;10.93;53.04
66398;BME280;54877;51.504;3.894;2023-04-05T06:57:53;102408.88;;;10.93;52.93
66398;BME280;54877;51.504;3.894;2023-04-05T07:00:19;102406.88;;;11.01;51.88
66398;BME280;54877;51.504;3.894;2023-04-05T07:02:45;102404.25;;;11.00;51.76
66398;BME280;54877;51.504;3.894;2023-04-05T07:05:10;102399.00;;;10.98;52.13
66398;BME280;54877;51.504;3.894;2023-04-05T07:07:39;102405.94;;;11.04;52.11
66398;BME280;54877;51.504;3.894;2023-04-05T07:10:06;102401.59;;;11.01;51.68
66398;BME280;54877;51.504;3.894;2023-04-05T07:12:32;102403.19;;;11.07;51.42
66398;BME280;54877;51.504;3.894;2023-04-05T07:14:58;102395.94;;;11.13;51.23
66398;BME280;54877;51.504;3.894;2023-04-05T07:17:23;102391.41;;;11.17;50.50
66398;BME280;54877;51.504;3.894;2023-04-05T07:19:49;102393.09;;;11.21;50.63
66398;BME280;54877;51.504;3.894;2023-04-05T07:22:15;102399.88;;;11.31;51.09
66398;BME280;54877;51.504;3.894;2023-04-05T07:24:40;102393.53;;;11.37;50.42
66398;BME280;54877;51.504;3.894;2023-04-05T07:27:05;102389.78;;;11.44;49.64
66398;BME280;54877;51.504;3.894;2023-04-05T07:29:31;102392.31;;;11.48;49.00
66398;BME280;54877;51.504;3.894;2023-04-05T07:31:56;102387.81;;;11.50;48.81
66398;BME280;54877;51.504;3.894;2023-04-05T07:34:21;102388.56;;;11.55;48.66
66398;BME280;54877;51.504;3.894;2023-04-05T07:36:47;102389.34;;;11.59;48.46
66398;BME280;54877;51.504;3.894;2023-04-05T07:39:14;102382.06;;;11.65;48.47
66398;BME280;54877;51.504;3.894;2023-04-05T07:41:39;102387.34;;;11.65;48.16
66398;BME280;54877;51.504;3.894;2023-04-05T07:44:05;102379.22;;;11.73;48.03
66398;BME280;54877;51.504;3.894;2023-04-05T07:46:30;102379.06;;;11.77;48.52
66398;BME280;54877;51.504;3.894;2023-04-05T07:48:56;102383.25;;;11.86;48.37
66398;BME280;54877;51.504;3.894;2023-04-05T07:51:22;102377.69;;;11.94;47.95
66398;BME280;54877;51.504;3.894;2023-04-05T07:53:47;102382.00;;;11.98;48.45
66398;BME280;54877;51.504;3.894;2023-04-05T07:56:13;102372.25;;;11.98;47.85
66398;BME280;54877;51.504;3.894;2023-04-05T07:58:39;102379.16;;;12.04;47.69
66398;BME280;54877;51.504;3.894;2023-04-05T08:01:05;102383.19;;;12.15;47.93
66398;BME280;54877;51.504;3.894;2023-04-05T08:03:31;102382.13;;;12.21;47.80
66398;BME280;54877;51.504;3.894;2023-04-05T08:05:59;102376.81;;;12.21;45.93
66398;BME280;54877;51.504;3.894;2023-04-05T08:08:34;102380.50;;;12.17;45.97
66398;BME280;54877;51.504;3.894;2023-04-05T08:11:01;102385.47;;;12.27;47.01
66398;BME280;54877;51.504;3.894;2023-04-05T08:13:27;102382.47;;;12.38;46.56
66398;BME280;54877;51.504;3.894;2023-04-05T08:15:54;102384.00;;;12.45;46.51
66398;BME280;54877;51.504;3.894;2023-04-05T08:18:20;102383.69;;;12.54;46.09
66398;BME280;54877;51.504;3.894;2023-04-05T08:20:49;102388.69;;;12.63;46.24
66398;BME280;54877;51.504;3.894;2023-04-05T08:23:15;102384.09;;;12.68;45.15
66398;BME280;54877;51.504;3.894;2023-04-05T08:25:41;102375.91;;;12.74;44.56
66398;BME280;54877;51.504;3.894;2023-04-05T08:28:06;102383.19;;;12.69;44.55
66398;BME280;54877;51.504;3.894;2023-04-05T08:30:31;102382.13;;;12.73;44.79
66398;BME280;54877;51.504;3.894;2023-04-05T08:32:57;102380.81;;;12.86;44.29
66398;BME280;54877;51.504;3.894;2023-04-05T08:35:22;102375.25;;;12.92;42.85
66398;BME280;54877;51.504;3.894;2023-04-05T08:37:48;102370.72;;;12.96;42.04
66398;BME280;54877;51.504;3.894;2023-04-05T08:40:13;102377.56;;;13.03;42.01
66398;BME280;54877;51.504;3.894;2023-04-05T08:42:43;102378.19;;;12.85;41.90
66398;BME280;54877;51.504;3.894;2023-04-05T08:45:16;102375.50;;;12.86;41.79
66398;BME280;54877;51.504;3.894;2023-04-05T08:47:45;102376.00;;;12.98;42.49
66398;BME280;54877;51.504;3.894;2023-04-05T08:50:13;102377.56;;;13.03;40.82
66398;BME280;54877;51.504;3.894;2023-04-05T08:52:38;102374.66;;;13.11;40.25
66398;BME280;54877;51.504;3.894;2023-04-05T08:55:07;102372.25;;;13.03;37.75
66398;BME280;54877;51.504;3.894;2023-04-05T08:57:32;102366.13;;;13.26;38.11
66398;BME280;54877;51.504;3.894;2023-04-05T09:00:01;102354.78;;;13.21;37.43
66398;BME280;54877;51.504;3.894;2023-04-05T09:02:27;102359.66;;;13.33;37.90
66398;BME280;54877;51.504;3.894;2023-04-05T09:04:53;102357.69;;;13.38;37.96
66398;BME280;54877;51.504;3.894;2023-04-05T09:07:20;102359.78;;;13.30;38.55
66398;BME280;54877;51.504;3.894;2023-04-05T09:09:47;102357.22;;;13.27;38.33
66398;BME280;54877;51.504;3.894;2023-04-05T09:12:16;102364.84;;;13.13;39.10
66398;BME280;54877;51.504;3.894;2023-04-05T09:14:45;102354.34;;;13.33;39.14
66398;BME280;54877;51.504;3.894;2023-04-05T09:17:13;102357.50;;;13.42;40.08
66398;BME280;54877;51.504;3.894;2023-04-05T09:19:45;102354.19;;;13.61;39.12
66398;BME280;54877;51.504;3.894;2023-04-05T09:22:10;102363.59;;;13.69;38.45
66398;BME280;54877;51.504;3.894;2023-04-05T09:24:39;102350.19;;;13.49;37.29
66398;BME280;54877;51.504;3.894;2023-04-05T09:27:09;102360.38;;;13.61;37.33
66398;BME280;54877;51.504;3.894;2023-04-05T09:29:45;102347.28;;;13.55;36.14
66398;BME280;54877;51.504;3.894;2023-04-05T09:32:12;102347.63;;;13.69;37.92
66398;BME280;54877;51.504;3.894;2023-04-05T09:34:39;102343.88;;;13.75;37.32
66398;BME280;54877;51.504;3.894;2023-04-05T09:37:13;102345.16;;;13.86;37.07
66398;BME280;54877;51.504;3.894;2023-04-05T09:39:40;102354.22;;;13.82;37.69
66398;BME280;54877;51.504;3.894;2023-04-05T09:42:09;102347.44;;;13.97;37.25
66398;BME280;54877;51.504;3.894;2023-04-05T09:44:58;102341.66;;;14.07;36.43
66398;BME280;54877;51.504;3.894;2023-04-05T09:47:27;102341.47;;;14.12;37.02
66398;BME280;54877;51.504;3.894;2023-04-05T09:49:57;102347.00;;;14.07;36.65
66398;BME280;54877;51.504;3.894;2023-04-05T09:52:24;102346.56;;;13.96;36.78
66398;BME280;54877;51.504;3.894;2023-04-05T09:54:53;102343.25;;;14.11;36.68
66398;BME280;54877;51.504;3.894;2023-04-05T09:57:21;102336.22;;;14.10;36.77
66398;BME280;54877;51.504;3.894;2023-04-05T09:59:47;102339.06;;;14.28;36.64
66398;BME280;54877;51.504;3.894;2023-04-05T10:02:13;102340.31;;;14.41;36.57
66398;BME280;54877;51.504;3.894;2023-04-05T10:04:41;102331.38;;;14.42;35.92
66398;BME280;54877;51.504;3.894;2023-04-05T10:07:09;102332.19;;;14.44;36.35
66398;BME280;54877;51.504;3.894;2023-04-05T10:09:39;102331.06;;;14.49;36.64
66398;BME280;54877;51.504;3.894;2023-04-05T10:12:07;102328.28;;;14.52;36.07
66398;BME280;54877;51.504;3.894;2023-04-05T10:14:37;102325.06;;;14.64;36.29
66398;BME280;54877;51.504;3.894;2023-04-05T10:25:28;102323.03;;;14.91;35.59
66398;BME280;54877;51.504;3.894;2023-04-05T10:28:03;102323.53;;;14.99;35.32
66398;BME280;54877;51.504;3.894;2023-04-05T10:30:39;102313.09;;;15.13;35.35
66398;BME280;54877;51.504;3.894;2023-04-05T10:38:48;102309.81;;;15.27;35.31
66398;BME280;54877;51.504;3.894;2023-04-05T10:41:28;102314.03;;;15.33;35.25
66398;BME280;54877;51.504;3.894;2023-04-05T10:43:57;102306.16;;;15.29;33.73
66398;BME280;54877;51.504;3.894;2023-04-05T10:46:23;102308.09;;;15.45;35.14
66398;BME280;54877;51.504;3.894;2023-04-05T10:51:50;102314.03;;;15.70;34.43
66398;BME280;54877;51.504;3.894;2023-04-05T10:54:16;102311.16;;;15.74;34.64
66398;BME280;54877;51.504;3.894;2023-04-05T10:56:43;102303.66;;;15.64;34.68
66398;BME280;54877;51.504;3.894;2023-04-05T10:59:10;102304.66;;;15.80;34.34
66398;BME280;54877;51.504;3.894;2023-04-05T11:01:37;102305.66;;;15.77;33.86
66398;BME280;54877;51.504;3.894;2023-04-05T11:04:11;102291.72;;;15.90;34.47
66398;BME280;54877;51.504;3.894;2023-04-05T11:06:40;102289.06;;;15.90;34.18
66398;BME280;54877;51.504;3.894;2023-04-05T11:11:37;102287.78;;;15.79;32.96
66398;BME280;54877;51.504;3.894;2023-04-05T11:14:16;102286.81;;;15.80;33.54
66398;BME280;54877;51.504;3.894;2023-04-05T11:16:45;102280.56;;;15.81;33.58
66398;BME280;54877;51.504;3.894;2023-04-05T11:19:12;102293.81;;;15.83;32.79
66398;BME280;54877;51.504;3.894;2023-04-05T11:21:40;102282.44;;;15.79;33.45
66398;BME280;54877;51.504;3.894;2023-04-05T11:26:51;102283.00;;;15.86;34.13
66398;BME280;54877;51.504;3.894;2023-04-05T11:29:18;102279.34;;;16.06;34.02
66398;BME280;54877;51.504;3.894;2023-04-05T11:32:10;102278.31;;;16.08;33.71
66398;BME280;54877;51.504;3.894;2023-04-05T11:34:36;102271.09;;;16.10;33.33
66398;BME280;54877;51.504;3.894;2023-04-05T11:37:02;102273.41;;;16.18;33.89
66398;BME280;54877;51.504;3.894;2023-04-05T11:39:27;102274.09;;;16.21;33.05
66398;BME280;54877;51.504;3.894;2023-04-05T11:41:54;102270.94;;;16.13;33.06
66398;BME280;54877;51.504;3.894;2023-04-05T11:44:22;102266.84;;;16.06;32.79
66398;BME280;54877;51.504;3.894;2023-04-05T11:46:49;102256.22;;;16.05;32.76
66398;BME280;54877;51.504;3.894;2023-04-05T11:49:15;102260.88;;;16.01;32.96
66398;BME280;54877;51.504;3.894;2023-04-05T11:51:40;102252.47;;;16.09;32.83
66398;BME280;54877;51.504;3.894;2023-04-05T11:54:07;102246.72;;;16.16;32.72
66398;BME280;54877;51.504;3.894;2023-04-05T11:56:32;102247.00;;;16.29;32.80
66398;BME280;54877;51.504;3.894;2023-04-05T11:58:58;102240.63;;;16.49;32.35
66398;BME280;54877;51.504;3.894;2023-04-05T12:01:24;102242.97;;;16.55;32.49
66398;BME280;54877;51.504;3.894;2023-04-05T12:03:53;102240.69;;;16.47;31.70
66398;BME280;54877;51.504;3.894;2023-04-05T12:06:23;102242.50;;;16.46;31.91
66398;BME280;54877;51.504;3.894;2023-04-05T12:08:50;102243.00;;;16.37;31.39
66398;BME280;54877;51.504;3.894;2023-04-05T12:11:23;102245.00;;;16.32;31.72
66398;BME280;54877;51.504;3.894;2023-04-05T12:13:55;102237.13;;;16.46;32.01
66398;BME280;54877;51.504;3.894;2023-04-05T12:16:22;102235.44;;;16.45;31.54
66398;BME280;54877;51.504;3.894;2023-04-05T12:18:55;102240.78;;;16.28;31.48
66398;BME280;54877;51.504;3.894;2023-04-05T12:21:21;102233.25;;;16.54;31.61
66398;BME280;54877;51.504;3.894;2023-04-05T12:23:48;102231.19;;;16.59;31.28
66398;BME280;54877;51.504;3.894;2023-04-05T12:26:14;102235.09;;;16.52;31.14
66398;BME280;54877;51.504;3.894;2023-04-05T12:28:53;102232.59;;;16.66;31.74
66398;BME280;54877;51.504;3.894;2023-04-05T12:34:09;102229.91;;;16.66;31.54
66398;BME280;54877;51.504;3.894;2023-04-05T12:36:36;102223.38;;;16.71;30.75
66398;BME280;54877;51.504;3.894;2023-04-05T12:39:05;102218.47;;;16.79;30.96
66398;BME280;54877;51.504;3.894;2023-04-05T12:41:33;102215.63;;;16.67;30.15
66398;BME280;54877;51.504;3.894;2023-04-05T12:43:58;102213.25;;;16.61;30.77
66398;BME280;54877;51.504;3.894;2023-04-05T12:46:38;102212.16;;;16.48;31.55
66398;BME280;54877;51.504;3.894;2023-04-05T12:49:05;102200.03;;;16.40;32.51
66398;BME280;54877;51.504;3.894;2023-04-05T12:51:34;102197.38;;;16.58;32.04
66398;BME280;54877;51.504;3.894;2023-04-05T12:54:00;102203.97;;;16.68;32.01
66398;BME280;54877;51.504;3.894;2023-04-05T12:56:28;102196.28;;;16.62;32.00
66398;BME280;54877;51.504;3.894;2023-04-05T12:58:54;102201.63;;;16.62;30.85
66398;BME280;54877;51.504;3.894;2023-04-05T13:01:20;102187.28;;;16.63;30.77
66398;BME280;54877;51.504;3.894;2023-04-05T13:03:45;102199.97;;;16.59;31.54
66398;BME280;54877;51.504;3.894;2023-04-05T13:06:11;102188.66;;;16.37;31.56
66398;BME280;54877;51.504;3.894;2023-04-05T13:08:36;102183.22;;;16.56;31.55
66398;BME280;54877;51.504;3.894;2023-04-05T13:11:02;102182.66;;;16.66;32.00
66398;BME280;54877;51.504;3.894;2023-04-05T13:13:27;102185.81;;;16.57;31.74
66398;BME280;54877;51.504;3.894;2023-04-05T13:15:53;102174.44;;;16.54;31.11
66398;BME280;54877;51.504;3.894;2023-04-05T13:18:18;102180.66;;;16.20;30.49
66398;BME280;54877;51.504;3.894;2023-04-05T13:20:44;102179.94;;;15.99;29.79
66398;BME280;54877;51.504;3.894;2023-04-05T13:23:10;102171.19;;;16.13;30.07
66398;BME280;54877;51.504;3.894;2023-04-05T13:25:37;102172.53;;;16.21;30.77
66398;BME280;54877;51.504;3.894;2023-04-05T13:28:03;102174.13;;;16.25;30.60
66398;BME280;54877;51.504;3.894;2023-04-05T13:30:29;102172.22;;;16.27;29.63